Terminal Aerodrome Forecast
Issued by NWS St Louis, MO

Home | Current Version | Previous Version | Text Only | Print | Product List | Glossary On
Versions: 1 2 3 4 5 6 7 8 9 10 11 12 13 14 15 16
000
FTUS43 KLSX 200500
TAFCOU
TAF
KCOU 200520Z 2006/2106 18006KT P6SM SCT250
     FM201400 22010KT P6SM SCT040 BKN250
     FM210100 24008KT P6SM VCTS SCT040CB BKN100=

USA.gov is the U.S. government's official web portal to all federal, state and local government web resources and services.